sensor_id;sensor_type;location;lat;lon;timestamp;P1;durP1;ratioP1;P2;durP2;ratioP2
2860;SDS011;1438;50.922;6.704;2022-09-12T00:00:31;15.93;;;13.50;;
2860;SDS011;1438;50.922;6.704;2022-09-12T00:02:56;15.80;;;14.13;;
2860;SDS011;1438;50.922;6.704;2022-09-12T00:05:22;17.93;;;12.73;;
2860;SDS011;1438;50.922;6.704;2022-09-12T00:07:49;17.40;;;14.53;;
2860;SDS011;1438;50.922;6.704;2022-09-12T00:10:14;17.53;;;13.67;;
2860;SDS011;1438;50.922;6.704;2022-09-12T00:12:40;14.20;;;12.70;;
2860;SDS011;1438;50.922;6.704;2022-09-12T00:15:06;15.67;;;13.80;;
2860;SDS011;1438;50.922;6.704;2022-09-12T00:17:33;26.83;;;14.30;;
2860;SDS011;1438;50.922;6.704;2022-09-12T00:19:59;19.60;;;13.23;;
2860;SDS011;1438;50.922;6.704;2022-09-12T00:22:25;16.90;;;13.30;;
2860;SDS011;1438;50.922;6.704;2022-09-12T00:24:50;26.03;;;13.60;;
2860;SDS011;1438;50.922;6.704;2022-09-12T00:27:16;18.57;;;14.30;;
2860;SDS011;1438;50.922;6.704;2022-09-12T00:29:42;21.23;;;14.37;;
2860;SDS011;1438;50.922;6.704;2022-09-12T00:32:07;17.00;;;15.30;;
2860;SDS011;1438;50.922;6.704;2022-09-12T00:34:33;21.00;;;14.47;;
2860;SDS011;1438;50.922;6.704;2022-09-12T00:36:59;19.20;;;16.17;;
2860;SDS011;1438;50.922;6.704;2022-09-12T00:39:25;19.57;;;14.67;;
2860;SDS011;1438;50.922;6.704;2022-09-12T00:41:50;18.17;;;14.30;;
2860;SDS011;1438;50.922;6.704;2022-09-12T00:46:51;16.60;;;14.70;;
2860;SDS011;1438;50.922;6.704;2022-09-12T00:49:30;16.33;;;14.23;;
2860;SDS011;1438;50.922;6.704;2022-09-12T00:54:51;18.37;;;15.27;;
2860;SDS011;1438;50.922;6.704;2022-09-12T00:57:22;17.20;;;14.63;;
2860;SDS011;1438;50.922;6.704;2022-09-12T00:59:53;16.07;;;13.90;;
2860;SDS011;1438;50.922;6.704;2022-09-12T01:02:22;15.87;;;14.17;;
2860;SDS011;1438;50.922;6.704;2022-09-12T01:04:48;18.90;;;14.50;;
2860;SDS011;1438;50.922;6.704;2022-09-12T01:07:15;18.70;;;13.50;;
2860;SDS011;1438;50.922;6.704;2022-09-12T01:09:41;15.73;;;12.73;;
2860;SDS011;1438;50.922;6.704;2022-09-12T01:12:09;16.87;;;13.17;;
2860;SDS011;1438;50.922;6.704;2022-09-12T01:14:36;20.00;;;16.23;;
2860;SDS011;1438;50.922;6.704;2022-09-12T01:17:02;18.90;;;15.53;;
2860;SDS011;1438;50.922;6.704;2022-09-12T01:25:18;18.10;;;14.67;;
2860;SDS011;1438;50.922;6.704;2022-09-12T01:28:02;20.60;;;15.00;;
2860;SDS011;1438;50.922;6.704;2022-09-12T01:31:07;21.10;;;15.20;;
2860;SDS011;1438;50.922;6.704;2022-09-12T01:33:49;14.60;;;13.17;;
2860;SDS011;1438;50.922;6.704;2022-09-12T01:36:38;15.47;;;13.80;;
2860;SDS011;1438;50.922;6.704;2022-09-12T01:39:23;17.47;;;14.83;;
2860;SDS011;1438;50.922;6.704;2022-09-12T01:42:42;20.70;;;17.20;;
2860;SDS011;1438;50.922;6.704;2022-09-12T01:47:26;26.00;;;17.20;;
2860;SDS011;1438;50.922;6.704;2022-09-12T01:50:08;18.90;;;15.90;;
2860;SDS011;1438;50.922;6.704;2022-09-12T01:52:42;17.90;;;14.20;;
2860;SDS011;1438;50.922;6.704;2022-09-12T01:58:08;18.10;;;16.20;;
2860;SDS011;1438;50.922;6.704;2022-09-12T02:01:05;19.90;;;15.80;;
2860;SDS011;1438;50.922;6.704;2022-09-12T02:03:33;21.60;;;17.17;;
2860;SDS011;1438;50.922;6.704;2022-09-12T02:06:16;21.83;;;16.23;;
2860;SDS011;1438;50.922;6.704;2022-09-12T02:08:50;19.17;;;16.60;;
2860;SDS011;1438;50.922;6.704;2022-09-12T02:11:18;19.20;;;16.70;;
2860;SDS011;1438;50.922;6.704;2022-09-12T02:16:46;19.43;;;15.53;;
2860;SDS011;1438;50.922;6.704;2022-09-12T02:19:16;26.23;;;17.60;;
2860;SDS011;1438;50.922;6.704;2022-09-12T02:22:03;23.57;;;18.97;;
2860;SDS011;1438;50.922;6.704;2022-09-12T02:24:37;23.93;;;17.30;;
2860;SDS011;1438;50.922;6.704;2022-09-12T02:27:16;20.33;;;18.10;;
2860;SDS011;1438;50.922;6.704;2022-09-12T02:29:48;23.70;;;17.93;;
2860;SDS011;1438;50.922;6.704;2022-09-12T02:34:44;24.17;;;18.03;;
2860;SDS011;1438;50.922;6.704;2022-09-12T02:39:53;22.80;;;17.90;;
2860;SDS011;1438;50.922;6.704;2022-09-12T02:42:21;25.20;;;19.37;;
2860;SDS011;1438;50.922;6.704;2022-09-12T02:44:47;33.47;;;21.13;;
2860;SDS011;1438;50.922;6.704;2022-09-12T02:47:17;25.77;;;20.67;;
2860;SDS011;1438;50.922;6.704;2022-09-12T02:49:49;27.17;;;19.40;;
2860;SDS011;1438;50.922;6.704;2022-09-12T02:52:15;24.50;;;19.33;;
2860;SDS011;1438;50.922;6.704;2022-09-12T02:54:41;26.63;;;20.10;;
2860;SDS011;1438;50.922;6.704;2022-09-12T02:57:14;28.97;;;19.53;;
2860;SDS011;1438;50.922;6.704;2022-09-12T02:59:41;28.03;;;19.53;;
2860;SDS011;1438;50.922;6.704;2022-09-12T03:02:12;27.27;;;19.67;;
2860;SDS011;1438;50.922;6.704;2022-09-12T03:15:48;25.47;;;18.57;;
2860;SDS011;1438;50.922;6.704;2022-09-12T03:21:11;29.03;;;20.90;;
2860;SDS011;1438;50.922;6.704;2022-09-12T03:24:19;26.20;;;18.40;;
2860;SDS011;1438;50.922;6.704;2022-09-12T03:26:54;24.43;;;18.87;;
2860;SDS011;1438;50.922;6.704;2022-09-12T03:29:26;27.53;;;20.10;;
2860;SDS011;1438;50.922;6.704;2022-09-12T03:31:54;25.03;;;19.40;;
2860;SDS011;1438;50.922;6.704;2022-09-12T03:34:22;22.67;;;19.67;;
2860;SDS011;1438;50.922;6.704;2022-09-12T03:36:49;25.10;;;19.47;;
2860;SDS011;1438;50.922;6.704;2022-09-12T03:39:15;27.27;;;18.83;;
2860;SDS011;1438;50.922;6.704;2022-09-12T03:41:41;24.60;;;18.57;;
2860;SDS011;1438;50.922;6.704;2022-09-12T03:44:07;27.17;;;20.27;;
2860;SDS011;1438;50.922;6.704;2022-09-12T03:46:32;26.20;;;18.67;;
2860;SDS011;1438;50.922;6.704;2022-09-12T03:48:58;26.03;;;19.80;;
2860;SDS011;1438;50.922;6.704;2022-09-12T03:51:24;28.97;;;20.40;;
2860;SDS011;1438;50.922;6.704;2022-09-12T03:53:50;28.60;;;20.30;;
2860;SDS011;1438;50.922;6.704;2022-09-12T03:56:16;32.77;;;21.83;;
2860;SDS011;1438;50.922;6.704;2022-09-12T03:58:43;28.07;;;19.43;;
2860;SDS011;1438;50.922;6.704;2022-09-12T04:01:13;29.57;;;19.33;;
2860;SDS011;1438;50.922;6.704;2022-09-12T04:03:41;31.00;;;20.83;;
2860;SDS011;1438;50.922;6.704;2022-09-12T04:06:08;28.90;;;21.13;;
2860;SDS011;1438;50.922;6.704;2022-09-12T04:08:36;27.50;;;20.60;;
2860;SDS011;1438;50.922;6.704;2022-09-12T04:11:07;27.67;;;19.33;;
2860;SDS011;1438;50.922;6.704;2022-09-12T04:13:39;29.37;;;21.87;;
2860;SDS011;1438;50.922;6.704;2022-09-12T04:16:07;31.13;;;21.97;;
2860;SDS011;1438;50.922;6.704;2022-09-12T04:18:33;29.37;;;21.10;;
2860;SDS011;1438;50.922;6.704;2022-09-12T04:21:02;32.40;;;23.13;;
2860;SDS011;1438;50.922;6.704;2022-09-12T04:23:32;32.23;;;22.10;;
2860;SDS011;1438;50.922;6.704;2022-09-12T04:25:58;30.20;;;20.70;;
2860;SDS011;1438;50.922;6.704;2022-09-12T04:28:25;29.80;;;21.50;;
2860;SDS011;1438;50.922;6.704;2022-09-12T04:30:53;28.30;;;21.80;;
2860;SDS011;1438;50.922;6.704;2022-09-12T04:33:19;30.13;;;21.07;;
2860;SDS011;1438;50.922;6.704;2022-09-12T04:35:46;30.03;;;21.90;;
2860;SDS011;1438;50.922;6.704;2022-09-12T04:38:12;25.60;;;19.10;;
2860;SDS011;1438;50.922;6.704;2022-09-12T04:40:38;29.37;;;20.83;;
2860;SDS011;1438;50.922;6.704;2022-09-12T04:43:04;29.27;;;20.43;;
2860;SDS011;1438;50.922;6.704;2022-09-12T04:45:30;29.17;;;21.63;;
2860;SDS011;1438;50.922;6.704;2022-09-12T04:47:57;30.13;;;21.20;;
2860;SDS011;1438;50.922;6.704;2022-09-12T04:50:22;32.03;;;23.10;;
2860;SDS011;1438;50.922;6.704;2022-09-12T04:52:51;32.67;;;22.33;;
2860;SDS011;1438;50.922;6.704;2022-09-12T04:55:18;32.43;;;21.30;;
2860;SDS011;1438;50.922;6.704;2022-09-12T04:57:45;32.00;;;21.93;;
2860;SDS011;1438;50.922;6.704;2022-09-12T05:00:11;28.40;;;21.40;;
2860;SDS011;1438;50.922;6.704;2022-09-12T05:02:40;29.70;;;20.70;;
2860;SDS011;1438;50.922;6.704;2022-09-12T05:05:06;32.03;;;22.97;;
2860;SDS011;1438;50.922;6.704;2022-09-12T05:07:32;33.47;;;22.90;;
2860;SDS011;1438;50.922;6.704;2022-09-12T05:09:58;37.20;;;21.90;;
2860;SDS011;1438;50.922;6.704;2022-09-12T05:12:24;34.70;;;23.20;;
2860;SDS011;1438;50.922;6.704;2022-09-12T05:14:51;27.93;;;21.27;;
2860;SDS011;1438;50.922;6.704;2022-09-12T05:17:16;34.03;;;22.70;;
2860;SDS011;1438;50.922;6.704;2022-09-12T05:19:42;35.10;;;23.60;;
2860;SDS011;1438;50.922;6.704;2022-09-12T05:22:07;36.20;;;26.07;;
2860;SDS011;1438;50.922;6.704;2022-09-12T05:24:33;34.03;;;22.70;;
2860;SDS011;1438;50.922;6.704;2022-09-12T05:26:59;35.10;;;24.07;;
2860;SDS011;1438;50.922;6.704;2022-09-12T05:29:25;41.43;;;23.87;;
2860;SDS011;1438;50.922;6.704;2022-09-12T05:31:51;32.63;;;23.13;;
2860;SDS011;1438;50.922;6.704;2022-09-12T05:34:17;33.90;;;22.40;;
2860;SDS011;1438;50.922;6.704;2022-09-12T05:36:44;32.47;;;21.60;;
2860;SDS011;1438;50.922;6.704;2022-09-12T05:39:09;30.80;;;21.57;;
2860;SDS011;1438;50.922;6.704;2022-09-12T05:41:35;28.80;;;21.60;;
2860;SDS011;1438;50.922;6.704;2022-09-12T05:44:02;34.30;;;24.27;;
2860;SDS011;1438;50.922;6.704;2022-09-12T05:46:30;36.33;;;21.57;;
2860;SDS011;1438;50.922;6.704;2022-09-12T05:49:03;31.53;;;22.30;;
2860;SDS011;1438;50.922;6.704;2022-09-12T05:51:34;28.47;;;21.43;;
2860;SDS011;1438;50.922;6.704;2022-09-12T05:54:02;35.63;;;23.50;;
2860;SDS011;1438;50.922;6.704;2022-09-12T05:56:30;34.63;;;24.93;;
2860;SDS011;1438;50.922;6.704;2022-09-12T06:01:26;37.57;;;25.97;;
2860;SDS011;1438;50.922;6.704;2022-09-12T06:03:53;37.27;;;26.83;;
2860;SDS011;1438;50.922;6.704;2022-09-12T06:06:22;40.67;;;25.60;;
2860;SDS011;1438;50.922;6.704;2022-09-12T06:08:49;42.43;;;25.87;;
2860;SDS011;1438;50.922;6.704;2022-09-12T06:11:18;36.70;;;26.97;;
2860;SDS011;1438;50.922;6.704;2022-09-12T06:13:45;35.87;;;25.47;;
2860;SDS011;1438;50.922;6.704;2022-09-12T06:16:15;35.00;;;25.03;;
2860;SDS011;1438;50.922;6.704;2022-09-12T06:18:46;33.73;;;25.67;;
2860;SDS011;1438;50.922;6.704;2022-09-12T06:21:20;40.07;;;26.13;;
2860;SDS011;1438;50.922;6.704;2022-09-12T06:23:46;35.87;;;24.33;;
2860;SDS011;1438;50.922;6.704;2022-09-12T06:26:13;35.17;;;25.33;;
2860;SDS011;1438;50.922;6.704;2022-09-12T06:28:41;34.63;;;24.57;;
2860;SDS011;1438;50.922;6.704;2022-09-12T06:31:13;37.73;;;25.30;;
2860;SDS011;1438;50.922;6.704;2022-09-12T06:33:41;33.57;;;24.80;;
2860;SDS011;1438;50.922;6.704;2022-09-12T06:36:13;38.70;;;25.60;;
2860;SDS011;1438;50.922;6.704;2022-09-12T06:38:53;36.07;;;23.07;;
2860;SDS011;1438;50.922;6.704;2022-09-12T06:41:20;34.27;;;24.30;;
2860;SDS011;1438;50.922;6.704;2022-09-12T06:43:46;31.60;;;22.30;;
2860;SDS011;1438;50.922;6.704;2022-09-12T06:46:11;31.27;;;23.17;;
2860;SDS011;1438;50.922;6.704;2022-09-12T06:48:37;29.63;;;21.60;;
2860;SDS011;1438;50.922;6.704;2022-09-12T06:51:04;31.70;;;22.17;;
2860;SDS011;1438;50.922;6.704;2022-09-12T06:53:31;29.47;;;21.87;;
2860;SDS011;1438;50.922;6.704;2022-09-12T06:56:01;28.83;;;22.10;;
2860;SDS011;1438;50.922;6.704;2022-09-12T06:58:29;31.50;;;22.73;;
2860;SDS011;1438;50.922;6.704;2022-09-12T07:01:01;28.80;;;20.30;;
2860;SDS011;1438;50.922;6.704;2022-09-12T07:03:29;27.60;;;19.13;;
2860;SDS011;1438;50.922;6.704;2022-09-12T07:05:55;26.07;;;19.90;;
2860;SDS011;1438;50.922;6.704;2022-09-12T07:08:21;24.30;;;19.33;;
2860;SDS011;1438;50.922;6.704;2022-09-12T07:10:46;27.00;;;19.20;;
2860;SDS011;1438;50.922;6.704;2022-09-12T07:13:12;26.77;;;19.97;;
2860;SDS011;1438;50.922;6.704;2022-09-12T07:15:38;32.20;;;21.20;;
2860;SDS011;1438;50.922;6.704;2022-09-12T07:18:04;24.20;;;18.30;;
2860;SDS011;1438;50.922;6.704;2022-09-12T07:20:30;22.47;;;18.90;;
2860;SDS011;1438;50.922;6.704;2022-09-12T07:22:58;23.93;;;18.97;;
2860;SDS011;1438;50.922;6.704;2022-09-12T07:25:24;24.43;;;18.27;;
2860;SDS011;1438;50.922;6.704;2022-09-12T07:27:51;20.77;;;17.00;;
2860;SDS011;1438;50.922;6.704;2022-09-12T07:30:17;23.57;;;18.10;;
2860;SDS011;1438;50.922;6.704;2022-09-12T07:32:43;23.70;;;17.00;;
2860;SDS011;1438;50.922;6.704;2022-09-12T07:35:09;22.90;;;16.80;;
2860;SDS011;1438;50.922;6.704;2022-09-12T07:37:35;23.70;;;16.13;;
2860;SDS011;1438;50.922;6.704;2022-09-12T07:40:00;25.03;;;16.43;;
2860;SDS011;1438;50.922;6.704;2022-09-12T07:42:26;19.83;;;17.70;;
2860;SDS011;1438;50.922;6.704;2022-09-12T07:44:52;20.07;;;15.50;;
2860;SDS011;1438;50.922;6.704;2022-09-12T07:47:18;21.27;;;14.80;;
2860;SDS011;1438;50.922;6.704;2022-09-12T07:49:43;19.33;;;15.50;;
2860;SDS011;1438;50.922;6.704;2022-09-12T07:52:09;18.87;;;14.57;;
2860;SDS011;1438;50.922;6.704;2022-09-12T07:54:34;18.20;;;14.10;;
2860;SDS011;1438;50.922;6.704;2022-09-12T07:57:00;17.13;;;12.70;;
2860;SDS011;1438;50.922;6.704;2022-09-12T07:59:26;19.10;;;14.87;;
2860;SDS011;1438;50.922;6.704;2022-09-12T08:01:52;16.33;;;13.60;;
2860;SDS011;1438;50.922;6.704;2022-09-12T08:04:17;15.00;;;12.90;;
2860;SDS011;1438;50.922;6.704;2022-09-12T08:06:43;15.10;;;13.33;;
2860;SDS011;1438;50.922;6.704;2022-09-12T08:09:08;16.50;;;12.70;;
2860;SDS011;1438;50.922;6.704;2022-09-12T08:11:36;14.80;;;12.53;;
2860;SDS011;1438;50.922;6.704;2022-09-12T08:14:01;13.93;;;12.30;;
2860;SDS011;1438;50.922;6.704;2022-09-12T08:16:29;14.67;;;12.27;;
2860;SDS011;1438;50.922;6.704;2022-09-12T08:18:56;15.40;;;11.83;;
2860;SDS011;1438;50.922;6.704;2022-09-12T08:21:23;14.27;;;12.73;;
2860;SDS011;1438;50.922;6.704;2022-09-12T08:23:51;17.30;;;12.93;;
2860;SDS011;1438;50.922;6.704;2022-09-12T08:26:21;14.27;;;12.00;;
2860;SDS011;1438;50.922;6.704;2022-09-12T08:28:47;15.70;;;12.97;;
2860;SDS011;1438;50.922;6.704;2022-09-12T08:31:14;15.10;;;12.60;;
2860;SDS011;1438;50.922;6.704;2022-09-12T08:33:41;17.57;;;12.83;;
2860;SDS011;1438;50.922;6.704;2022-09-12T08:36:11;17.80;;;12.20;;
2860;SDS011;1438;50.922;6.704;2022-09-12T08:38:45;15.63;;;12.37;;
2860;SDS011;1438;50.922;6.704;2022-09-12T08:49:11;16.03;;;11.63;;
2860;SDS011;1438;50.922;6.704;2022-09-12T08:51:39;14.93;;;12.00;;
2860;SDS011;1438;50.922;6.704;2022-09-12T08:54:09;14.30;;;11.00;;
2860;SDS011;1438;50.922;6.704;2022-09-12T08:56:45;11.63;;;10.13;;
2860;SDS011;1438;50.922;6.704;2022-09-12T08:59:11;13.27;;;9.33;;
2860;SDS011;1438;50.922;6.704;2022-09-12T09:01:41;14.93;;;10.00;;
2860;SDS011;1438;50.922;6.704;2022-09-12T09:04:13;10.50;;;7.40;;
2860;SDS011;1438;50.922;6.704;2022-09-12T09:13:30;5.80;;;5.20;;
2860;SDS011;1438;50.922;6.704;2022-09-12T09:18:56;5.50;;;4.80;;
2860;SDS011;1438;50.922;6.704;2022-09-12T09:21:28;4.63;;;4.30;;
2860;SDS011;1438;50.922;6.704;2022-09-12T09:24:04;4.50;;;4.10;;
2860;SDS011;1438;50.922;6.704;2022-09-12T09:26:40;5.33;;;4.50;;
2860;SDS011;1438;50.922;6.704;2022-09-12T09:29:15;5.67;;;4.97;;
2860;SDS011;1438;50.922;6.704;2022-09-12T09:31:44;9.43;;;5.00;;
2860;SDS011;1438;50.922;6.704;2022-09-12T09:34:14;5.80;;;5.07;;
2860;SDS011;1438;50.922;6.704;2022-09-12T09:36:50;3.83;;;3.50;;
2860;SDS011;1438;50.922;6.704;2022-09-12T09:39:25;4.20;;;3.80;;
2860;SDS011;1438;50.922;6.704;2022-09-12T09:42:15;3.33;;;2.90;;
2860;SDS011;1438;50.922;6.704;2022-09-12T09:44:43;4.73;;;3.80;;
2860;SDS011;1438;50.922;6.704;2022-09-12T09:47:11;3.57;;;3.23;;
2860;SDS011;1438;50.922;6.704;2022-09-12T09:49:37;4.80;;;4.03;;
2860;SDS011;1438;50.922;6.704;2022-09-12T09:52:04;5.87;;;3.87;;
2860;SDS011;1438;50.922;6.704;2022-09-12T09:54:40;6.47;;;3.97;;
2860;SDS011;1438;50.922;6.704;2022-09-12T10:03:20;6.27;;;4.30;;
2860;SDS011;1438;50.922;6.704;2022-09-12T10:06:00;5.37;;;4.33;;
2860;SDS011;1438;50.922;6.704;2022-09-12T10:08:34;5.07;;;4.50;;
2860;SDS011;1438;50.922;6.704;2022-09-12T10:11:05;4.50;;;4.10;;
2860;SDS011;1438;50.922;6.704;2022-09-12T10:13:54;7.83;;;4.83;;
2860;SDS011;1438;50.922;6.704;2022-09-12T10:16:31;6.13;;;4.73;;
2860;SDS011;1438;50.922;6.704;2022-09-12T10:19:20;5.93;;;5.00;;
2860;SDS011;1438;50.922;6.704;2022-09-12T10:21:52;6.33;;;5.00;;
2860;SDS011;1438;50.922;6.704;2022-09-12T10:24:38;9.00;;;5.10;;
2860;SDS011;1438;50.922;6.704;2022-09-12T10:29:44;4.30;;;3.83;;
2860;SDS011;1438;50.922;6.704;2022-09-12T10:32:49;5.10;;;3.63;;
2860;SDS011;1438;50.922;6.704;2022-09-12T10:35:17;5.57;;;4.90;;
2860;SDS011;1438;50.922;6.704;2022-09-12T10:40:30;4.80;;;4.00;;
2860;SDS011;1438;50.922;6.704;2022-09-12T10:43:01;4.07;;;3.77;;
2860;SDS011;1438;50.922;6.704;2022-09-12T10:45:39;3.17;;;2.90;;
2860;SDS011;1438;50.922;6.704;2022-09-12T10:50:55;3.57;;;3.23;;
2860;SDS011;1438;50.922;6.704;2022-09-12T10:53:22;3.93;;;2.80;;
2860;SDS011;1438;50.922;6.704;2022-09-12T11:07:05;3.53;;;3.23;;
2860;SDS011;1438;50.922;6.704;2022-09-12T11:26:02;3.73;;;3.17;;
2860;SDS011;1438;50.922;6.704;2022-09-12T11:29:01;4.93;;;3.27;;
2860;SDS011;1438;50.922;6.704;2022-09-12T11:40:04;5.60;;;2.83;;
2860;SDS011;1438;50.922;6.704;2022-09-12T11:42:44;4.43;;;3.83;;
2860;SDS011;1438;50.922;6.704;2022-09-12T11:45:16;4.43;;;3.03;;
2860;SDS011;1438;50.922;6.704;2022-09-12T11:47:51;6.03;;;3.40;;
2860;SDS011;1438;50.922;6.704;2022-09-12T11:50:27;3.00;;;2.63;;
2860;SDS011;1438;50.922;6.704;2022-09-12T11:52:54;2.87;;;2.40;;
2860;SDS011;1438;50.922;6.704;2022-09-12T11:55:28;3.13;;;2.83;;
2860;SDS011;1438;50.922;6.704;2022-09-12T11:57:58;3.20;;;2.90;;
2860;SDS011;1438;50.922;6.704;2022-09-12T12:00:37;3.40;;;3.17;;
2860;SDS011;1438;50.922;6.704;2022-09-12T12:03:15;3.73;;;3.07;;
2860;SDS011;1438;50.922;6.704;2022-09-12T12:08:28;3.37;;;3.10;;
2860;SDS011;1438;50.922;6.704;2022-09-12T12:10:59;7.17;;;2.80;;
2860;SDS011;1438;50.922;6.704;2022-09-12T12:16:05;2.80;;;2.37;;
2860;SDS011;1438;50.922;6.704;2022-09-12T12:18:37;2.67;;;2.47;;
2860;SDS011;1438;50.922;6.704;2022-09-12T12:29:49;2.50;;;2.30;;
2860;SDS011;1438;50.922;6.704;2022-09-12T12:34:34;2.40;;;2.20;;
2860;SDS011;1438;50.922;6.704;2022-09-12T12:39:57;2.77;;;2.47;;
2860;SDS011;1438;50.922;6.704;2022-09-12T12:55:13;2.07;;;1.97;;
2860;SDS011;1438;50.922;6.704;2022-09-12T12:57:46;2.03;;;1.83;;
2860;SDS011;1438;50.922;6.704;2022-09-12T13:02:48;1.80;;;1.70;;
2860;SDS011;1438;50.922;6.704;2022-09-12T13:05:20;2.03;;;1.80;;
2860;SDS011;1438;50.922;6.704;2022-09-12T13:07:52;2.07;;;1.90;;
2860;SDS011;1438;50.922;6.704;2022-09-12T13:10:31;2.77;;;2.57;;
2860;SDS011;1438;50.922;6.704;2022-09-12T13:13:02;2.40;;;2.10;;
2860;SDS011;1438;50.922;6.704;2022-09-12T13:18:12;3.97;;;2.00;;
2860;SDS011;1438;50.922;6.704;2022-09-12T13:23:29;2.57;;;2.37;;
2860;SDS011;1438;50.922;6.704;2022-09-12T13:25:57;5.60;;;2.30;;
2860;SDS011;1438;50.922;6.704;2022-09-12T13:28:25;3.10;;;2.10;;
2860;SDS011;1438;50.922;6.704;2022-09-12T13:44:52;2.37;;;2.10;;
2860;SDS011;1438;50.922;6.704;2022-09-12T13:47:42;2.50;;;2.30;;
2860;SDS011;1438;50.922;6.704;2022-09-12T13:50:17;2.27;;;2.03;;
2860;SDS011;1438;50.922;6.704;2022-09-12T13:52:49;2.07;;;1.87;;
2860;SDS011;1438;50.922;6.704;2022-09-12T13:55:30;4.80;;;2.43;;
2860;SDS011;1438;50.922;6.704;2022-09-12T13:58:02;2.73;;;2.50;;
2860;SDS011;1438;50.922;6.704;2022-09-12T14:00:30;3.67;;;2.43;;
2860;SDS011;1438;50.922;6.704;2022-09-12T14:02:59;2.67;;;2.43;;
2860;SDS011;1438;50.922;6.704;2022-09-12T14:05:44;2.40;;;2.13;;
2860;SDS011;1438;50.922;6.704;2022-09-12T14:08:19;2.17;;;1.97;;
2860;SDS011;1438;50.922;6.704;2022-09-12T14:10:47;3.43;;;2.50;;
2860;SDS011;1438;50.922;6.704;2022-09-12T14:13:18;1.80;;;1.70;;
2860;SDS011;1438;50.922;6.704;2022-09-12T14:15:47;6.40;;;2.50;;
2860;SDS011;1438;50.922;6.704;2022-09-12T14:18:24;5.10;;;2.20;;
2860;SDS011;1438;50.922;6.704;2022-09-12T14:20:51;1.90;;;1.80;;
2860;SDS011;1438;50.922;6.704;2022-09-12T14:23:26;3.30;;;2.20;;
2860;SDS011;1438;50.922;6.704;2022-09-12T14:25:54;2.27;;;1.90;;
2860;SDS011;1438;50.922;6.704;2022-09-12T14:28:21;2.93;;;2.50;;
2860;SDS011;1438;50.922;6.704;2022-09-12T14:31:04;2.37;;;1.90;;
2860;SDS011;1438;50.922;6.704;2022-09-12T14:33:54;2.63;;;2.43;;
2860;SDS011;1438;50.922;6.704;2022-09-12T14:36:33;2.40;;;2.20;;
2860;SDS011;1438;50.922;6.704;2022-09-12T14:39:02;3.23;;;2.47;;
2860;SDS011;1438;50.922;6.704;2022-09-12T14:41:33;4.77;;;3.03;;
2860;SDS011;1438;50.922;6.704;2022-09-12T14:44:06;2.40;;;2.20;;
2860;SDS011;1438;50.922;6.704;2022-09-12T14:46:38;4.80;;;2.20;;
2860;SDS011;1438;50.922;6.704;2022-09-12T14:56:57;2.40;;;2.20;;
2860;SDS011;1438;50.922;6.704;2022-09-12T15:04:44;3.07;;;2.77;;
2860;SDS011;1438;50.922;6.704;2022-09-12T15:07:17;5.30;;;2.67;;
2860;SDS011;1438;50.922;6.704;2022-09-12T15:09:52;2.47;;;2.20;;
2860;SDS011;1438;50.922;6.704;2022-09-12T15:12:17;3.40;;;2.20;;
2860;SDS011;1438;50.922;6.704;2022-09-12T15:14:43;2.30;;;2.10;;
2860;SDS011;1438;50.922;6.704;2022-09-12T15:17:09;3.60;;;2.03;;
2860;SDS011;1438;50.922;6.704;2022-09-12T15:19:34;3.17;;;2.10;;
2860;SDS011;1438;50.922;6.704;2022-09-12T15:22:00;3.40;;;3.10;;
2860;SDS011;1438;50.922;6.704;2022-09-12T15:24:25;3.00;;;2.70;;
2860;SDS011;1438;50.922;6.704;2022-09-12T15:26:51;4.00;;;2.77;;
2860;SDS011;1438;50.922;6.704;2022-09-12T15:29:17;2.27;;;2.07;;
2860;SDS011;1438;50.922;6.704;2022-09-12T15:31:44;2.90;;;2.30;;
2860;SDS011;1438;50.922;6.704;2022-09-12T15:34:11;5.57;;;2.87;;
2860;SDS011;1438;50.922;6.704;2022-09-12T15:36:36;6.57;;;2.60;;
2860;SDS011;1438;50.922;6.704;2022-09-12T15:39:02;6.83;;;2.80;;
2860;SDS011;1438;50.922;6.704;2022-09-12T15:41:31;3.73;;;2.67;;
2860;SDS011;1438;50.922;6.704;2022-09-12T15:44:03;4.40;;;3.50;;
2860;SDS011;1438;50.922;6.704;2022-09-12T15:46:29;3.60;;;2.93;;
2860;SDS011;1438;50.922;6.704;2022-09-12T15:48:55;3.30;;;3.00;;
2860;SDS011;1438;50.922;6.704;2022-09-12T15:51:22;3.60;;;2.40;;
2860;SDS011;1438;50.922;6.704;2022-09-12T15:53:48;4.70;;;2.77;;
2860;SDS011;1438;50.922;6.704;2022-09-12T15:56:16;2.67;;;2.40;;
2860;SDS011;1438;50.922;6.704;2022-09-12T15:58:42;3.73;;;3.30;;
2860;SDS011;1438;50.922;6.704;2022-09-12T16:01:10;3.30;;;2.77;;
2860;SDS011;1438;50.922;6.704;2022-09-12T16:03:37;3.97;;;3.17;;
2860;SDS011;1438;50.922;6.704;2022-09-12T16:06:03;4.00;;;3.07;;
2860;SDS011;1438;50.922;6.704;2022-09-12T16:08:29;3.37;;;2.47;;
2860;SDS011;1438;50.922;6.704;2022-09-12T16:10:56;2.87;;;2.63;;
2860;SDS011;1438;50.922;6.704;2022-09-12T16:13:24;3.27;;;2.97;;
2860;SDS011;1438;50.922;6.704;2022-09-12T16:15:50;4.40;;;2.83;;
2860;SDS011;1438;50.922;6.704;2022-09-12T16:18:16;4.83;;;3.07;;
2860;SDS011;1438;50.922;6.704;2022-09-12T16:20:42;3.40;;;3.10;;
2860;SDS011;1438;50.922;6.704;2022-09-12T16:23:11;3.53;;;3.07;;
2860;SDS011;1438;50.922;6.704;2022-09-12T16:25:38;6.13;;;2.90;;
2860;SDS011;1438;50.922;6.704;2022-09-12T16:28:04;6.00;;;3.00;;
2860;SDS011;1438;50.922;6.704;2022-09-12T16:30:31;4.77;;;3.17;;
2860;SDS011;1438;50.922;6.704;2022-09-12T16:32:57;5.10;;;3.00;;
2860;SDS011;1438;50.922;6.704;2022-09-12T16:35:23;4.07;;;2.57;;
2860;SDS011;1438;50.922;6.704;2022-09-12T16:37:48;5.37;;;3.03;;
2860;SDS011;1438;50.922;6.704;2022-09-12T16:40:14;5.07;;;2.97;;
2860;SDS011;1438;50.922;6.704;2022-09-12T16:42:43;4.70;;;2.50;;
2860;SDS011;1438;50.922;6.704;2022-09-12T16:45:09;5.13;;;3.10;;
2860;SDS011;1438;50.922;6.704;2022-09-12T16:47:36;4.33;;;3.23;;
2860;SDS011;1438;50.922;6.704;2022-09-12T16:50:02;3.77;;;2.70;;
2860;SDS011;1438;50.922;6.704;2022-09-12T16:52:28;4.90;;;3.37;;
2860;SDS011;1438;50.922;6.704;2022-09-12T16:54:55;2.90;;;2.70;;
2860;SDS011;1438;50.922;6.704;2022-09-12T16:57:20;5.70;;;3.20;;
2860;SDS011;1438;50.922;6.704;2022-09-12T16:59:47;3.20;;;2.30;;
2860;SDS011;1438;50.922;6.704;2022-09-12T17:02:13;5.73;;;2.73;;
2860;SDS011;1438;50.922;6.704;2022-09-12T17:04:39;3.80;;;2.40;;
2860;SDS011;1438;50.922;6.704;2022-09-12T17:07:06;7.60;;;2.80;;
2860;SDS011;1438;50.922;6.704;2022-09-12T17:09:32;4.40;;;3.07;;
2860;SDS011;1438;50.922;6.704;2022-09-12T17:11:59;3.50;;;3.20;;
2860;SDS011;1438;50.922;6.704;2022-09-12T17:14:24;7.00;;;3.07;;
2860;SDS011;1438;50.922;6.704;2022-09-12T17:16:50;3.03;;;2.40;;
2860;SDS011;1438;50.922;6.704;2022-09-12T17:19:17;4.90;;;2.97;;
2860;SDS011;1438;50.922;6.704;2022-09-12T17:21:45;4.03;;;3.07;;
2860;SDS011;1438;50.922;6.704;2022-09-12T17:24:12;5.20;;;2.90;;
2860;SDS011;1438;50.922;6.704;2022-09-12T17:26:39;4.13;;;3.20;;
2860;SDS011;1438;50.922;6.704;2022-09-12T17:29:04;5.67;;;3.27;;
2860;SDS011;1438;50.922;6.704;2022-09-12T17:31:30;5.80;;;2.80;;
2860;SDS011;1438;50.922;6.704;2022-09-12T17:33:56;5.37;;;2.83;;
2860;SDS011;1438;50.922;6.704;2022-09-12T17:36:23;4.93;;;2.70;;
2860;SDS011;1438;50.922;6.704;2022-09-12T17:38:49;4.53;;;2.70;;
2860;SDS011;1438;50.922;6.704;2022-09-12T17:41:23;3.30;;;2.90;;
2860;SDS011;1438;50.922;6.704;2022-09-12T17:43:53;5.53;;;3.23;;
2860;SDS011;1438;50.922;6.704;2022-09-12T17:46:28;3.60;;;2.50;;
2860;SDS011;1438;50.922;6.704;2022-09-12T17:48:56;4.23;;;3.30;;
2860;SDS011;1438;50.922;6.704;2022-09-12T17:51:26;4.80;;;3.27;;
2860;SDS011;1438;50.922;6.704;2022-09-12T17:53:55;3.77;;;3.23;;
2860;SDS011;1438;50.922;6.704;2022-09-12T17:56:23;5.97;;;3.90;;
2860;SDS011;1438;50.922;6.704;2022-09-12T17:58:49;5.17;;;4.00;;
2860;SDS011;1438;50.922;6.704;2022-09-12T18:01:14;5.93;;;3.20;;
2860;SDS011;1438;50.922;6.704;2022-09-12T18:03:59;4.50;;;3.20;;
2860;SDS011;1438;50.922;6.704;2022-09-12T18:06:25;4.33;;;3.40;;
2860;SDS011;1438;50.922;6.704;2022-09-12T18:08:52;5.77;;;3.83;;
2860;SDS011;1438;50.922;6.704;2022-09-12T18:11:18;4.97;;;3.17;;